sensor_id;sensor_type;location;lat;lon;timestamp;P1;durP1;ratioP1;P2;durP2;ratioP2
13951;SDS011;39535;52.192;9.886;2022-10-16T00:01:31;6.53;;;1.20;;
13951;SDS011;39535;52.192;9.886;2022-10-16T00:03:58;4.53;;;0.70;;
13951;SDS011;39535;52.192;9.886;2022-10-16T00:06:25;8.37;;;1.27;;
13951;SDS011;39535;52.192;9.886;2022-10-16T00:08:52;5.33;;;1.30;;
13951;SDS011;39535;52.192;9.886;2022-10-16T00:11:21;8.03;;;1.43;;
13951;SDS011;39535;52.192;9.886;2022-10-16T00:13:50;3.80;;;1.03;;
13951;SDS011;39535;52.192;9.886;2022-10-16T00:16:18;5.30;;;1.27;;
13951;SDS011;39535;52.192;9.886;2022-10-16T00:18:45;3.17;;;1.63;;
13951;SDS011;39535;52.192;9.886;2022-10-16T00:21:12;3.63;;;1.20;;
13951;SDS011;39535;52.192;9.886;2022-10-16T00:23:40;3.37;;;0.97;;
13951;SDS011;39535;52.192;9.886;2022-10-16T00:26:07;1.47;;;0.83;;
13951;SDS011;39535;52.192;9.886;2022-10-16T00:28:37;3.27;;;0.93;;
13951;SDS011;39535;52.192;9.886;2022-10-16T00:31:04;1.10;;;1.10;;
13951;SDS011;39535;52.192;9.886;2022-10-16T00:33:31;1.23;;;1.17;;
13951;SDS011;39535;52.192;9.886;2022-10-16T00:35:58;1.13;;;1.03;;
13951;SDS011;39535;52.192;9.886;2022-10-16T00:38:24;1.80;;;0.90;;
13951;SDS011;39535;52.192;9.886;2022-10-16T00:40:51;1.20;;;1.10;;
13951;SDS011;39535;52.192;9.886;2022-10-16T00:43:32;2.40;;;1.10;;
13951;SDS011;39535;52.192;9.886;2022-10-16T00:46:03;1.47;;;0.80;;
13951;SDS011;39535;52.192;9.886;2022-10-16T00:48:34;2.03;;;1.10;;
13951;SDS011;39535;52.192;9.886;2022-10-16T00:51:00;5.03;;;1.60;;
13951;SDS011;39535;52.192;9.886;2022-10-16T00:53:27;4.53;;;1.40;;
13951;SDS011;39535;52.192;9.886;2022-10-16T00:55:54;6.30;;;1.00;;
13951;SDS011;39535;52.192;9.886;2022-10-16T00:58:20;2.67;;;1.30;;
13951;SDS011;39535;52.192;9.886;2022-10-16T01:00:47;8.00;;;1.40;;
13951;SDS011;39535;52.192;9.886;2022-10-16T01:03:25;3.60;;;1.23;;
13951;SDS011;39535;52.192;9.886;2022-10-16T01:05:56;2.07;;;1.00;;
13951;SDS011;39535;52.192;9.886;2022-10-16T01:08:34;6.17;;;1.60;;
13951;SDS011;39535;52.192;9.886;2022-10-16T01:11:11;2.83;;;1.40;;
13951;SDS011;39535;52.192;9.886;2022-10-16T01:13:45;3.93;;;1.40;;
13951;SDS011;39535;52.192;9.886;2022-10-16T01:16:15;3.90;;;1.60;;
13951;SDS011;39535;52.192;9.886;2022-10-16T01:18:49;3.30;;;1.43;;
13951;SDS011;39535;52.192;9.886;2022-10-16T01:21:21;7.17;;;1.27;;
13951;SDS011;39535;52.192;9.886;2022-10-16T01:23:51;1.77;;;1.43;;
13951;SDS011;39535;52.192;9.886;2022-10-16T01:26:31;4.97;;;1.50;;
13951;SDS011;39535;52.192;9.886;2022-10-16T01:29:07;1.33;;;1.20;;
13951;SDS011;39535;52.192;9.886;2022-10-16T01:31:40;2.53;;;1.37;;
13951;SDS011;39535;52.192;9.886;2022-10-16T01:34:11;1.83;;;1.23;;
13951;SDS011;39535;52.192;9.886;2022-10-16T01:36:45;2.77;;;1.43;;
13951;SDS011;39535;52.192;9.886;2022-10-16T01:39:17;2.63;;;1.27;;
13951;SDS011;39535;52.192;9.886;2022-10-16T01:41:48;7.23;;;1.90;;
13951;SDS011;39535;52.192;9.886;2022-10-16T01:44:22;3.37;;;1.57;;
13951;SDS011;39535;52.192;9.886;2022-10-16T01:46:52;2.07;;;1.30;;
13951;SDS011;39535;52.192;9.886;2022-10-16T01:49:21;2.10;;;1.43;;
13951;SDS011;39535;52.192;9.886;2022-10-16T01:51:52;3.17;;;1.70;;
13951;SDS011;39535;52.192;9.886;2022-10-16T01:54:21;3.63;;;1.40;;
13951;SDS011;39535;52.192;9.886;2022-10-16T01:56:51;2.07;;;1.50;;
13951;SDS011;39535;52.192;9.886;2022-10-16T01:59:19;2.63;;;1.40;;
13951;SDS011;39535;52.192;9.886;2022-10-16T02:01:52;4.17;;;1.43;;
13951;SDS011;39535;52.192;9.886;2022-10-16T02:04:22;4.73;;;1.47;;
13951;SDS011;39535;52.192;9.886;2022-10-16T02:06:53;3.97;;;1.60;;
13951;SDS011;39535;52.192;9.886;2022-10-16T02:09:20;1.40;;;1.30;;
13951;SDS011;39535;52.192;9.886;2022-10-16T02:11:47;3.43;;;1.47;;
13951;SDS011;39535;52.192;9.886;2022-10-16T02:14:15;1.97;;;1.40;;
13951;SDS011;39535;52.192;9.886;2022-10-16T02:16:43;2.37;;;1.53;;
13951;SDS011;39535;52.192;9.886;2022-10-16T02:19:11;3.17;;;1.40;;
13951;SDS011;39535;52.192;9.886;2022-10-16T02:21:41;1.87;;;1.47;;
13951;SDS011;39535;52.192;9.886;2022-10-16T02:24:12;3.07;;;1.50;;
13951;SDS011;39535;52.192;9.886;2022-10-16T02:26:43;4.43;;;1.43;;
13951;SDS011;39535;52.192;9.886;2022-10-16T02:29:16;3.63;;;1.60;;
13951;SDS011;39535;52.192;9.886;2022-10-16T02:31:48;2.43;;;1.43;;
13951;SDS011;39535;52.192;9.886;2022-10-16T02:34:17;2.40;;;1.73;;
13951;SDS011;39535;52.192;9.886;2022-10-16T02:36:46;2.43;;;1.60;;
13951;SDS011;39535;52.192;9.886;2022-10-16T02:39:14;2.97;;;1.50;;
13951;SDS011;39535;52.192;9.886;2022-10-16T02:41:42;3.57;;;1.30;;
13951;SDS011;39535;52.192;9.886;2022-10-16T02:44:08;2.37;;;1.47;;
13951;SDS011;39535;52.192;9.886;2022-10-16T02:46:35;1.90;;;1.20;;
13951;SDS011;39535;52.192;9.886;2022-10-16T02:49:03;3.70;;;2.00;;
13951;SDS011;39535;52.192;9.886;2022-10-16T02:51:29;5.73;;;1.80;;
13951;SDS011;39535;52.192;9.886;2022-10-16T02:53:56;4.40;;;1.70;;
13951;SDS011;39535;52.192;9.886;2022-10-16T02:56:22;7.60;;;1.73;;
13951;SDS011;39535;52.192;9.886;2022-10-16T02:58:49;17.40;;;2.13;;
13951;SDS011;39535;52.192;9.886;2022-10-16T03:01:15;2.97;;;1.80;;
13951;SDS011;39535;52.192;9.886;2022-10-16T03:03:42;4.93;;;1.00;;
13951;SDS011;39535;52.192;9.886;2022-10-16T03:06:10;4.63;;;1.70;;
13951;SDS011;39535;52.192;9.886;2022-10-16T03:08:36;4.50;;;1.33;;
13951;SDS011;39535;52.192;9.886;2022-10-16T03:11:03;4.57;;;1.80;;
13951;SDS011;39535;52.192;9.886;2022-10-16T03:13:29;6.63;;;1.20;;
13951;SDS011;39535;52.192;9.886;2022-10-16T03:15:56;5.53;;;1.40;;
13951;SDS011;39535;52.192;9.886;2022-10-16T03:18:22;5.90;;;1.50;;
13951;SDS011;39535;52.192;9.886;2022-10-16T03:20:48;4.63;;;1.27;;
13951;SDS011;39535;52.192;9.886;2022-10-16T03:23:16;3.87;;;1.40;;
13951;SDS011;39535;52.192;9.886;2022-10-16T03:25:43;8.07;;;1.53;;
13951;SDS011;39535;52.192;9.886;2022-10-16T03:28:09;2.83;;;1.40;;
13951;SDS011;39535;52.192;9.886;2022-10-16T03:30:36;8.37;;;1.70;;
13951;SDS011;39535;52.192;9.886;2022-10-16T03:33:04;5.93;;;1.63;;
13951;SDS011;39535;52.192;9.886;2022-10-16T03:35:31;4.57;;;1.33;;
13951;SDS011;39535;52.192;9.886;2022-10-16T03:37:58;3.60;;;1.53;;
13951;SDS011;39535;52.192;9.886;2022-10-16T03:40:26;5.17;;;1.43;;
13951;SDS011;39535;52.192;9.886;2022-10-16T03:42:52;6.27;;;1.40;;
13951;SDS011;39535;52.192;9.886;2022-10-16T03:45:22;5.77;;;2.10;;
13951;SDS011;39535;52.192;9.886;2022-10-16T03:47:48;5.93;;;1.57;;
13951;SDS011;39535;52.192;9.886;2022-10-16T03:50:15;5.80;;;1.73;;
13951;SDS011;39535;52.192;9.886;2022-10-16T03:52:41;6.27;;;1.60;;
13951;SDS011;39535;52.192;9.886;2022-10-16T03:55:08;8.23;;;2.03;;
13951;SDS011;39535;52.192;9.886;2022-10-16T03:57:36;5.37;;;1.73;;
13951;SDS011;39535;52.192;9.886;2022-10-16T04:00:02;11.87;;;1.90;;
13951;SDS011;39535;52.192;9.886;2022-10-16T04:02:29;3.40;;;1.87;;
13951;SDS011;39535;52.192;9.886;2022-10-16T04:04:56;5.20;;;1.67;;
13951;SDS011;39535;52.192;9.886;2022-10-16T04:07:22;3.17;;;1.37;;
13951;SDS011;39535;52.192;9.886;2022-10-16T04:09:49;5.70;;;1.73;;
13951;SDS011;39535;52.192;9.886;2022-10-16T04:12:17;2.57;;;1.67;;
13951;SDS011;39535;52.192;9.886;2022-10-16T04:14:44;14.00;;;1.93;;
13951;SDS011;39535;52.192;9.886;2022-10-16T04:17:11;13.43;;;1.90;;
13951;SDS011;39535;52.192;9.886;2022-10-16T04:19:37;7.13;;;1.67;;
13951;SDS011;39535;52.192;9.886;2022-10-16T04:22:04;4.37;;;1.50;;
13951;SDS011;39535;52.192;9.886;2022-10-16T04:24:30;5.90;;;1.80;;
13951;SDS011;39535;52.192;9.886;2022-10-16T04:26:57;7.67;;;2.47;;
13951;SDS011;39535;52.192;9.886;2022-10-16T04:29:23;9.03;;;1.67;;
13951;SDS011;39535;52.192;9.886;2022-10-16T04:31:51;2.43;;;1.60;;
13951;SDS011;39535;52.192;9.886;2022-10-16T04:34:17;4.53;;;1.90;;
13951;SDS011;39535;52.192;9.886;2022-10-16T04:36:44;5.43;;;1.50;;
13951;SDS011;39535;52.192;9.886;2022-10-16T04:39:13;3.27;;;1.60;;
13951;SDS011;39535;52.192;9.886;2022-10-16T04:41:40;10.37;;;1.83;;
13951;SDS011;39535;52.192;9.886;2022-10-16T04:44:06;3.43;;;1.67;;
13951;SDS011;39535;52.192;9.886;2022-10-16T04:46:33;14.70;;;1.90;;
13951;SDS011;39535;52.192;9.886;2022-10-16T04:49:01;5.47;;;1.67;;
13951;SDS011;39535;52.192;9.886;2022-10-16T04:51:27;4.07;;;1.83;;
13951;SDS011;39535;52.192;9.886;2022-10-16T04:53:54;2.57;;;1.10;;
13951;SDS011;39535;52.192;9.886;2022-10-16T04:56:20;2.90;;;1.40;;
13951;SDS011;39535;52.192;9.886;2022-10-16T04:58:47;3.20;;;1.60;;
13951;SDS011;39535;52.192;9.886;2022-10-16T05:01:14;3.97;;;1.60;;
13951;SDS011;39535;52.192;9.886;2022-10-16T05:03:40;4.83;;;1.60;;
13951;SDS011;39535;52.192;9.886;2022-10-16T05:06:08;2.93;;;1.43;;
13951;SDS011;39535;52.192;9.886;2022-10-16T05:08:35;3.57;;;1.93;;
13951;SDS011;39535;52.192;9.886;2022-10-16T05:11:01;2.13;;;1.60;;
13951;SDS011;39535;52.192;9.886;2022-10-16T05:13:28;2.73;;;1.57;;
13951;SDS011;39535;52.192;9.886;2022-10-16T05:15:54;2.00;;;1.27;;
13951;SDS011;39535;52.192;9.886;2022-10-16T05:18:20;4.30;;;1.60;;
13951;SDS011;39535;52.192;9.886;2022-10-16T05:20:47;4.37;;;1.73;;
13951;SDS011;39535;52.192;9.886;2022-10-16T05:23:15;4.30;;;1.60;;
13951;SDS011;39535;52.192;9.886;2022-10-16T05:25:41;9.50;;;1.83;;
13951;SDS011;39535;52.192;9.886;2022-10-16T05:28:07;2.10;;;1.47;;
13951;SDS011;39535;52.192;9.886;2022-10-16T05:30:34;4.20;;;1.53;;
13951;SDS011;39535;52.192;9.886;2022-10-16T05:33:03;2.33;;;1.17;;
13951;SDS011;39535;52.192;9.886;2022-10-16T05:35:29;2.27;;;1.23;;
13951;SDS011;39535;52.192;9.886;2022-10-16T05:37:56;3.00;;;1.47;;
13951;SDS011;39535;52.192;9.886;2022-10-16T05:40:24;3.93;;;1.40;;
13951;SDS011;39535;52.192;9.886;2022-10-16T05:42:54;5.43;;;1.37;;
13951;SDS011;39535;52.192;9.886;2022-10-16T05:45:20;3.23;;;1.40;;
13951;SDS011;39535;52.192;9.886;2022-10-16T05:47:47;1.67;;;1.57;;
13951;SDS011;39535;52.192;9.886;2022-10-16T05:50:13;2.83;;;1.40;;
13951;SDS011;39535;52.192;9.886;2022-10-16T05:52:40;2.27;;;1.37;;
13951;SDS011;39535;52.192;9.886;2022-10-16T05:55:07;7.60;;;1.47;;
13951;SDS011;39535;52.192;9.886;2022-10-16T05:57:35;1.50;;;1.30;;
13951;SDS011;39535;52.192;9.886;2022-10-16T06:00:02;5.57;;;1.70;;
13951;SDS011;39535;52.192;9.886;2022-10-16T06:02:29;2.70;;;1.37;;
13951;SDS011;39535;52.192;9.886;2022-10-16T06:04:56;5.50;;;1.70;;
13951;SDS011;39535;52.192;9.886;2022-10-16T06:07:22;2.10;;;1.80;;
13951;SDS011;39535;52.192;9.886;2022-10-16T06:09:49;1.50;;;1.10;;
13951;SDS011;39535;52.192;9.886;2022-10-16T06:12:16;2.40;;;1.40;;
13951;SDS011;39535;52.192;9.886;2022-10-16T06:14:45;3.23;;;1.70;;
13951;SDS011;39535;52.192;9.886;2022-10-16T06:17:12;2.77;;;1.80;;
13951;SDS011;39535;52.192;9.886;2022-10-16T06:19:39;2.30;;;1.53;;
13951;SDS011;39535;52.192;9.886;2022-10-16T06:22:06;4.30;;;1.40;;
13951;SDS011;39535;52.192;9.886;2022-10-16T06:24:33;5.43;;;2.03;;
13951;SDS011;39535;52.192;9.886;2022-10-16T06:26:59;1.23;;;1.17;;
13951;SDS011;39535;52.192;9.886;2022-10-16T06:29:26;1.23;;;1.10;;
13951;SDS011;39535;52.192;9.886;2022-10-16T06:31:54;2.50;;;1.60;;
13951;SDS011;39535;52.192;9.886;2022-10-16T06:34:20;1.83;;;1.40;;
13951;SDS011;39535;52.192;9.886;2022-10-16T06:36:47;1.50;;;1.50;;
13951;SDS011;39535;52.192;9.886;2022-10-16T06:39:13;1.60;;;1.50;;
13951;SDS011;39535;52.192;9.886;2022-10-16T06:41:39;3.00;;;1.40;;
13951;SDS011;39535;52.192;9.886;2022-10-16T06:44:06;1.60;;;1.50;;
13951;SDS011;39535;52.192;9.886;2022-10-16T06:46:33;1.83;;;1.73;;
13951;SDS011;39535;52.192;9.886;2022-10-16T06:49:01;2.23;;;1.73;;
13951;SDS011;39535;52.192;9.886;2022-10-16T06:51:28;1.80;;;1.47;;
13951;SDS011;39535;52.192;9.886;2022-10-16T06:53:56;2.20;;;1.40;;
13951;SDS011;39535;52.192;9.886;2022-10-16T06:56:23;2.60;;;1.73;;
13951;SDS011;39535;52.192;9.886;2022-10-16T06:58:51;1.40;;;1.30;;
13951;SDS011;39535;52.192;9.886;2022-10-16T07:01:19;1.90;;;1.80;;
13951;SDS011;39535;52.192;9.886;2022-10-16T07:03:47;2.70;;;1.87;;
13951;SDS011;39535;52.192;9.886;2022-10-16T07:06:16;1.67;;;1.50;;
13951;SDS011;39535;52.192;9.886;2022-10-16T07:08:44;2.40;;;1.50;;
13951;SDS011;39535;52.192;9.886;2022-10-16T07:11:13;2.43;;;1.53;;
13951;SDS011;39535;52.192;9.886;2022-10-16T07:13:42;1.50;;;1.40;;
13951;SDS011;39535;52.192;9.886;2022-10-16T07:16:11;2.40;;;1.50;;
13951;SDS011;39535;52.192;9.886;2022-10-16T07:18:39;2.50;;;1.40;;
13951;SDS011;39535;52.192;9.886;2022-10-16T07:21:08;2.17;;;1.40;;
13951;SDS011;39535;52.192;9.886;2022-10-16T07:23:37;2.10;;;1.27;;
13951;SDS011;39535;52.192;9.886;2022-10-16T07:26:04;1.97;;;1.10;;
13951;SDS011;39535;52.192;9.886;2022-10-16T07:28:31;1.43;;;1.33;;
13951;SDS011;39535;52.192;9.886;2022-10-16T07:31:00;1.20;;;1.20;;
13951;SDS011;39535;52.192;9.886;2022-10-16T07:33:27;2.10;;;1.10;;
13951;SDS011;39535;52.192;9.886;2022-10-16T07:35:54;0.97;;;0.93;;
13951;SDS011;39535;52.192;9.886;2022-10-16T07:38:21;1.10;;;0.90;;
13951;SDS011;39535;52.192;9.886;2022-10-16T07:40:55;0.80;;;0.80;;
13951;SDS011;39535;52.192;9.886;2022-10-16T07:43:22;1.30;;;0.90;;
13951;SDS011;39535;52.192;9.886;2022-10-16T07:45:49;1.00;;;0.83;;
13951;SDS011;39535;52.192;9.886;2022-10-16T07:48:16;1.30;;;0.93;;
13951;SDS011;39535;52.192;9.886;2022-10-16T07:50:43;0.77;;;0.70;;
13951;SDS011;39535;52.192;9.886;2022-10-16T07:53:10;1.60;;;0.90;;
13951;SDS011;39535;52.192;9.886;2022-10-16T07:55:37;1.90;;;1.10;;
13951;SDS011;39535;52.192;9.886;2022-10-16T07:58:05;1.10;;;0.90;;
13951;SDS011;39535;52.192;9.886;2022-10-16T08:00:32;1.13;;;0.97;;
13951;SDS011;39535;52.192;9.886;2022-10-16T08:02:59;0.87;;;0.87;;
13951;SDS011;39535;52.192;9.886;2022-10-16T08:05:26;0.97;;;0.97;;
13951;SDS011;39535;52.192;9.886;2022-10-16T08:07:53;1.00;;;1.00;;
13951;SDS011;39535;52.192;9.886;2022-10-16T08:10:20;1.37;;;0.70;;
13951;SDS011;39535;52.192;9.886;2022-10-16T08:12:48;2.07;;;0.93;;
13951;SDS011;39535;52.192;9.886;2022-10-16T08:15:16;2.00;;;0.90;;
13951;SDS011;39535;52.192;9.886;2022-10-16T08:17:42;0.87;;;0.87;;
13951;SDS011;39535;52.192;9.886;2022-10-16T08:20:09;1.10;;;1.10;;
13951;SDS011;39535;52.192;9.886;2022-10-16T08:22:36;1.80;;;1.00;;
13951;SDS011;39535;52.192;9.886;2022-10-16T08:25:03;1.27;;;0.93;;
13951;SDS011;39535;52.192;9.886;2022-10-16T08:27:30;1.00;;;1.00;;
13951;SDS011;39535;52.192;9.886;2022-10-16T08:29:57;1.13;;;1.07;;
13951;SDS011;39535;52.192;9.886;2022-10-16T08:32:25;1.87;;;0.97;;
13951;SDS011;39535;52.192;9.886;2022-10-16T08:34:51;4.87;;;1.40;;
13951;SDS011;39535;52.192;9.886;2022-10-16T08:37:18;1.23;;;0.93;;
13951;SDS011;39535;52.192;9.886;2022-10-16T08:39:44;1.60;;;1.00;;
13951;SDS011;39535;52.192;9.886;2022-10-16T08:42:13;1.73;;;1.00;;
13951;SDS011;39535;52.192;9.886;2022-10-16T08:47:45;1.60;;;1.00;;
13951;SDS011;39535;52.192;9.886;2022-10-16T08:50:21;0.97;;;0.80;;
13951;SDS011;39535;52.192;9.886;2022-10-16T08:52:52;1.20;;;1.10;;
13951;SDS011;39535;52.192;9.886;2022-10-16T08:55:23;1.00;;;0.90;;
13951;SDS011;39535;52.192;9.886;2022-10-16T08:57:57;0.83;;;0.83;;
13951;SDS011;39535;52.192;9.886;2022-10-16T09:00:24;1.00;;;1.00;;
13951;SDS011;39535;52.192;9.886;2022-10-16T09:02:55;0.83;;;0.70;;
13951;SDS011;39535;52.192;9.886;2022-10-16T09:05:49;0.73;;;0.73;;
13951;SDS011;39535;52.192;9.886;2022-10-16T09:08:25;1.47;;;0.87;;
13951;SDS011;39535;52.192;9.886;2022-10-16T09:10:59;1.40;;;0.90;;
13951;SDS011;39535;52.192;9.886;2022-10-16T09:13:34;0.70;;;0.70;;
13951;SDS011;39535;52.192;9.886;2022-10-16T09:16:10;2.37;;;0.70;;
13951;SDS011;39535;52.192;9.886;2022-10-16T09:18:45;1.13;;;0.90;;
13951;SDS011;39535;52.192;9.886;2022-10-16T09:21:19;0.70;;;0.70;;
13951;SDS011;39535;52.192;9.886;2022-10-16T09:23:47;1.07;;;0.80;;
13951;SDS011;39535;52.192;9.886;2022-10-16T09:26:14;0.87;;;0.67;;
13951;SDS011;39535;52.192;9.886;2022-10-16T09:28:44;0.70;;;0.70;;
13951;SDS011;39535;52.192;9.886;2022-10-16T09:31:13;1.53;;;0.90;;
13951;SDS011;39535;52.192;9.886;2022-10-16T09:33:45;1.23;;;0.70;;
13951;SDS011;39535;52.192;9.886;2022-10-16T09:36:16;2.30;;;0.70;;
13951;SDS011;39535;52.192;9.886;2022-10-16T09:38:44;0.80;;;0.80;;
13951;SDS011;39535;52.192;9.886;2022-10-16T09:41:13;0.83;;;0.60;;
13951;SDS011;39535;52.192;9.886;2022-10-16T09:43:46;2.60;;;0.80;;
13951;SDS011;39535;52.192;9.886;2022-10-16T09:46:21;1.33;;;0.70;;
13951;SDS011;39535;52.192;9.886;2022-10-16T09:48:53;0.63;;;0.57;;
13951;SDS011;39535;52.192;9.886;2022-10-16T09:51:23;1.80;;;0.70;;
13951;SDS011;39535;52.192;9.886;2022-10-16T09:53:53;0.77;;;0.60;;
13951;SDS011;39535;52.192;9.886;2022-10-16T09:56:22;1.23;;;0.70;;
13951;SDS011;39535;52.192;9.886;2022-10-16T09:58:50;1.27;;;0.60;;
13951;SDS011;39535;52.192;9.886;2022-10-16T10:01:18;2.07;;;0.77;;
13951;SDS011;39535;52.192;9.886;2022-10-16T10:03:45;0.70;;;0.50;;
13951;SDS011;39535;52.192;9.886;2022-10-16T10:06:19;0.80;;;0.70;;
13951;SDS011;39535;52.192;9.886;2022-10-16T10:08:53;0.80;;;0.80;;
13951;SDS011;39535;52.192;9.886;2022-10-16T10:14:11;1.63;;;0.50;;
13951;SDS011;39535;52.192;9.886;2022-10-16T10:16:43;1.83;;;0.60;;
13951;SDS011;39535;52.192;9.886;2022-10-16T10:19:12;1.47;;;0.50;;
13951;SDS011;39535;52.192;9.886;2022-10-16T10:21:42;0.57;;;0.57;;
13951;SDS011;39535;52.192;9.886;2022-10-16T10:24:10;0.70;;;0.50;;
13951;SDS011;39535;52.192;9.886;2022-10-16T10:26:37;2.57;;;0.77;;
13951;SDS011;39535;52.192;9.886;2022-10-16T10:29:06;2.70;;;0.70;;
13951;SDS011;39535;52.192;9.886;2022-10-16T10:31:42;0.60;;;0.40;;
13951;SDS011;39535;52.192;9.886;2022-10-16T10:34:19;1.00;;;0.50;;
13951;SDS011;39535;52.192;9.886;2022-10-16T10:36:55;2.30;;;0.60;;
13951;SDS011;39535;52.192;9.886;2022-10-16T10:39:30;1.90;;;0.60;;
13951;SDS011;39535;52.192;9.886;2022-10-16T10:42:07;1.33;;;0.93;;
13951;SDS011;39535;52.192;9.886;2022-10-16T10:44:50;1.60;;;0.63;;
13951;SDS011;39535;52.192;9.886;2022-10-16T10:47:30;1.17;;;0.80;;
13951;SDS011;39535;52.192;9.886;2022-10-16T10:50:07;1.63;;;0.57;;
13951;SDS011;39535;52.192;9.886;2022-10-16T10:52:46;2.50;;;0.83;;
13951;SDS011;39535;52.192;9.886;2022-10-16T10:55:23;1.60;;;0.50;;
13951;SDS011;39535;52.192;9.886;2022-10-16T10:58:05;0.97;;;0.50;;
13951;SDS011;39535;52.192;9.886;2022-10-16T11:00:47;2.03;;;0.80;;
13951;SDS011;39535;52.192;9.886;2022-10-16T11:03:27;1.97;;;0.80;;
13951;SDS011;39535;52.192;9.886;2022-10-16T11:06:02;2.73;;;0.83;;
13951;SDS011;39535;52.192;9.886;2022-10-16T11:08:35;2.23;;;0.40;;
13951;SDS011;39535;52.192;9.886;2022-10-16T11:11:06;2.67;;;0.60;;
13951;SDS011;39535;52.192;9.886;2022-10-16T11:13:40;0.50;;;0.50;;
13951;SDS011;39535;52.192;9.886;2022-10-16T11:16:16;0.40;;;0.37;;
13951;SDS011;39535;52.192;9.886;2022-10-16T11:18:48;1.87;;;0.60;;
13951;SDS011;39535;52.192;9.886;2022-10-16T11:21:18;1.83;;;0.60;;
13951;SDS011;39535;52.192;9.886;2022-10-16T11:23:50;1.40;;;0.50;;
13951;SDS011;39535;52.192;9.886;2022-10-16T11:26:22;1.80;;;0.50;;
13951;SDS011;39535;52.192;9.886;2022-10-16T11:28:53;0.77;;;0.50;;
13951;SDS011;39535;52.192;9.886;2022-10-16T11:31:22;1.50;;;0.60;;
13951;SDS011;39535;52.192;9.886;2022-10-16T11:33:59;0.40;;;0.37;;
13951;SDS011;39535;52.192;9.886;2022-10-16T11:36:32;1.10;;;0.43;;
13951;SDS011;39535;52.192;9.886;2022-10-16T11:39:04;0.63;;;0.50;;
13951;SDS011;39535;52.192;9.886;2022-10-16T11:41:43;0.90;;;0.50;;
13951;SDS011;39535;52.192;9.886;2022-10-16T11:44:20;0.83;;;0.40;;
13951;SDS011;39535;52.192;9.886;2022-10-16T11:47:01;1.63;;;0.30;;
13951;SDS011;39535;52.192;9.886;2022-10-16T11:49:36;0.30;;;0.30;;
13951;SDS011;39535;52.192;9.886;2022-10-16T11:52:06;0.30;;;0.30;;
13951;SDS011;39535;52.192;9.886;2022-10-16T11:54:43;0.30;;;0.30;;
13951;SDS011;39535;52.192;9.886;2022-10-16T11:57:16;1.87;;;0.30;;
13951;SDS011;39535;52.192;9.886;2022-10-16T11:59:47;1.07;;;0.40;;
13951;SDS011;39535;52.192;9.886;2022-10-16T12:02:24;1.03;;;0.30;;
13951;SDS011;39535;52.192;9.886;2022-10-16T12:04:59;0.87;;;0.40;;
13951;SDS011;39535;52.192;9.886;2022-10-16T12:07:34;1.47;;;0.50;;
13951;SDS011;39535;52.192;9.886;2022-10-16T12:10:19;0.87;;;0.40;;
13951;SDS011;39535;52.192;9.886;2022-10-16T12:12:46;1.53;;;0.40;;
13951;SDS011;39535;52.192;9.886;2022-10-16T12:15:21;0.80;;;0.40;;
13951;SDS011;39535;52.192;9.886;2022-10-16T12:17:50;1.23;;;0.40;;
13951;SDS011;39535;52.192;9.886;2022-10-16T12:20:20;0.83;;;0.40;;
13951;SDS011;39535;52.192;9.886;2022-10-16T12:22:50;0.57;;;0.33;;
13951;SDS011;39535;52.192;9.886;2022-10-16T12:25:22;0.53;;;0.30;;
13951;SDS011;39535;52.192;9.886;2022-10-16T12:27:54;0.30;;;0.30;;
13951;SDS011;39535;52.192;9.886;2022-10-16T12:30:22;0.50;;;0.47;;
13951;SDS011;39535;52.192;9.886;2022-10-16T12:32:54;0.37;;;0.30;;
13951;SDS011;39535;52.192;9.886;2022-10-16T12:35:23;1.30;;;0.70;;
13951;SDS011;39535;52.192;9.886;2022-10-16T12:37:51;1.87;;;0.30;;
13951;SDS011;39535;52.192;9.886;2022-10-16T12:40:27;0.87;;;0.30;;
13951;SDS011;39535;52.192;9.886;2022-10-16T12:42:56;0.77;;;0.30;;
13951;SDS011;39535;52.192;9.886;2022-10-16T12:45:27;0.77;;;0.40;;
13951;SDS011;39535;52.192;9.886;2022-10-16T12:47:56;0.80;;;0.30;;
13951;SDS011;39535;52.192;9.886;2022-10-16T12:50:28;2.03;;;0.37;;
13951;SDS011;39535;52.192;9.886;2022-10-16T12:52:59;1.90;;;0.37;;
13951;SDS011;39535;52.192;9.886;2022-10-16T12:55:30;2.10;;;0.60;;
13951;SDS011;39535;52.192;9.886;2022-10-16T12:58:07;1.53;;;0.30;;
13951;SDS011;39535;52.192;9.886;2022-10-16T13:00:44;0.93;;;0.23;;
13951;SDS011;39535;52.192;9.886;2022-10-16T13:03:24;0.90;;;0.30;;
13951;SDS011;39535;52.192;9.886;2022-10-16T13:06:14;0.67;;;0.30;;
13951;SDS011;39535;52.192;9.886;2022-10-16T13:08:53;0.80;;;0.40;;
13951;SDS011;39535;52.192;9.886;2022-10-16T13:11:41;0.53;;;0.20;;
13951;SDS011;39535;52.192;9.886;2022-10-16T13:14:41;1.43;;;0.40;;
13951;SDS011;39535;52.192;9.886;2022-10-16T13:17:22;2.53;;;1.20;;
13951;SDS011;39535;52.192;9.886;2022-10-16T13:19:59;0.70;;;0.70;;
13951;SDS011;39535;52.192;9.886;2022-10-16T13:22:33;0.77;;;0.60;;
13951;SDS011;39535;52.192;9.886;2022-10-16T13:25:13;0.87;;;0.30;;
13951;SDS011;39535;52.192;9.886;2022-10-16T13:27:52;0.53;;;0.40;;
13951;SDS011;39535;52.192;9.886;2022-10-16T13:30:22;1.10;;;0.80;;
13951;SDS011;39535;52.192;9.886;2022-10-16T13:32:52;1.97;;;0.90;;
13951;SDS011;39535;52.192;9.886;2022-10-16T13:35:29;0.90;;;0.80;;
13951;SDS011;39535;52.192;9.886;2022-10-16T13:38:11;3.43;;;1.10;;
13951;SDS011;39535;52.192;9.886;2022-10-16T13:40:47;1.30;;;0.90;;
13951;SDS011;39535;52.192;9.886;2022-10-16T13:43:17;2.60;;;0.90;;
13951;SDS011;39535;52.192;9.886;2022-10-16T13:45:52;0.40;;;0.40;;
13951;SDS011;39535;52.192;9.886;2022-10-16T13:48:20;2.63;;;0.60;;
13951;SDS011;39535;52.192;9.886;2022-10-16T13:50:46;3.60;;;0.60;;
13951;SDS011;39535;52.192;9.886;2022-10-16T13:53:24;0.87;;;0.40;;
13951;SDS011;39535;52.192;9.886;2022-10-16T13:55:51;0.60;;;0.37;;
13951;SDS011;39535;52.192;9.886;2022-10-16T13:58:19;1.60;;;0.40;;
13951;SDS011;39535;52.192;9.886;2022-10-16T14:00:53;0.87;;;0.50;;
13951;SDS011;39535;52.192;9.886;2022-10-16T14:03:21;1.40;;;0.40;;
13951;SDS011;39535;52.192;9.886;2022-10-16T14:05:49;1.50;;;0.40;;
13951;SDS011;39535;52.192;9.886;2022-10-16T14:08:17;1.90;;;0.50;;
13951;SDS011;39535;52.192;9.886;2022-10-16T14:10:47;0.50;;;0.50;;
13951;SDS011;39535;52.192;9.886;2022-10-16T14:13:15;1.00;;;0.40;;
13951;SDS011;39535;52.192;9.886;2022-10-16T14:15:47;0.40;;;0.30;;
13951;SDS011;39535;52.192;9.886;2022-10-16T14:18:18;1.70;;;0.40;;
13951;SDS011;39535;52.192;9.886;2022-10-16T14:20:46;0.30;;;0.30;;
13951;SDS011;39535;52.192;9.886;2022-10-16T14:23:19;2.20;;;0.50;;
13951;SDS011;39535;52.192;9.886;2022-10-16T14:25:48;1.50;;;0.40;;
13951;SDS011;39535;52.192;9.886;2022-10-16T14:28:16;0.43;;;0.40;;
13951;SDS011;39535;52.192;9.886;2022-10-16T14:30:55;2.07;;;0.40;;
13951;SDS011;39535;52.192;9.886;2022-10-16T14:33:23;0.53;;;0.30;;
13951;SDS011;39535;52.192;9.886;2022-10-16T14:36:02;0.20;;;0.20;;
13951;SDS011;39535;52.192;9.886;2022-10-16T14:38:31;0.97;;;0.30;;
13951;SDS011;39535;52.192;9.886;2022-10-16T14:40:58;1.13;;;0.40;;
13951;SDS011;39535;52.192;9.886;2022-10-16T14:43:29;0.37;;;0.37;;
13951;SDS011;39535;52.192;9.886;2022-10-16T14:46:00;0.53;;;0.40;;
13951;SDS011;39535;52.192;9.886;2022-10-16T14:48:29;0.50;;;0.50;;
13951;SDS011;39535;52.192;9.886;2022-10-16T14:50:55;0.40;;;0.40;;
13951;SDS011;39535;52.192;9.886;2022-10-16T14:53:22;1.17;;;0.50;;
13951;SDS011;39535;52.192;9.886;2022-10-16T14:55:48;1.80;;;0.60;;
13951;SDS011;39535;52.192;9.886;2022-10-16T14:58:15;0.67;;;0.40;;
13951;SDS011;39535;52.192;9.886;2022-10-16T15:00:44;1.30;;;0.53;;
13951;SDS011;39535;52.192;9.886;2022-10-16T15:03:12;1.67;;;0.60;;
13951;SDS011;39535;52.192;9.886;2022-10-16T15:05:38;2.37;;;0.70;;
13951;SDS011;39535;52.192;9.886;2022-10-16T15:08:05;2.43;;;0.53;;
13951;SDS011;39535;52.192;9.886;2022-10-16T15:10:32;2.37;;;0.70;;